createdAt,value
2019-02-23T00:00:27.693Z,4.46
2019-02-23T00:01:27.613Z,4.52
2019-02-23T00:02:27.555Z,4.51
2019-02-23T00:03:27.500Z,4.52
2019-02-23T00:04:27.431Z,4.59
2019-02-23T00:05:27.403Z,4.61
2019-02-23T00:06:30.137Z,4.66
2019-02-23T00:07:27.280Z,4.56
2019-02-23T00:08:27.255Z,4.61
2019-02-23T00:09:27.165Z,4.67
2019-02-23T00:10:27.112Z,4.70
2019-02-23T00:11:27.097Z,4.64
2019-02-23T00:12:26.997Z,4.66
2019-02-23T00:13:26.950Z,4.64
2019-02-23T00:14:26.893Z,4.59
2019-02-23T00:15:26.838Z,4.63
2019-02-23T00:16:26.802Z,4.64
2019-02-23T00:17:26.728Z,4.64
2019-02-23T00:18:26.661Z,4.59
2019-02-23T00:19:26.604Z,4.56
2019-02-23T00:20:26.549Z,4.56
2019-02-23T00:21:26.524Z,4.56
2019-02-23T00:22:26.439Z,4.56
2019-02-23T00:23:26.386Z,4.66
2019-02-23T00:24:26.337Z,4.64
2019-02-23T00:25:26.277Z,4.67
2019-02-23T00:26:26.240Z,4.61
2019-02-23T00:27:26.152Z,4.66
2019-02-23T00:28:26.107Z,4.67
2019-02-23T00:29:26.044Z,4.69
2019-02-23T00:30:25.995Z,4.64
2019-02-23T00:31:25.964Z,4.73
2019-02-23T00:32:25.880Z,4.64
2019-02-23T00:33:25.829Z,4.67
2019-02-23T00:34:25.759Z,4.76
2019-02-23T00:35:25.714Z,4.64
2019-02-23T00:36:25.675Z,4.77
2019-02-23T00:37:25.597Z,4.77
2019-02-23T00:38:25.548Z,4.74
2019-02-23T00:39:25.508Z,4.64
2019-02-23T00:40:25.434Z,4.67
2019-02-23T00:41:25.386Z,4.74
2019-02-23T00:42:25.312Z,4.76
2019-02-23T00:43:25.261Z,4.77
2019-02-23T00:44:25.207Z,4.70
2019-02-23T00:45:25.154Z,4.73
2019-02-23T00:46:25.119Z,4.70
2019-02-23T00:47:25.038Z,4.63
2019-02-23T00:48:24.987Z,4.70
2019-02-23T00:49:35.568Z,4.69
2019-02-23T00:50:24.876Z,4.73
2019-02-23T00:51:24.859Z,4.70
2019-02-23T00:52:24.770Z,4.67
2019-02-23T00:53:24.701Z,4.66
2019-02-23T00:54:24.645Z,4.69
2019-02-23T00:55:24.590Z,4.66
2019-02-23T00:56:24.540Z,4.63
2019-02-23T00:57:24.505Z,4.59
2019-02-23T00:58:24.417Z,4.67
2019-02-23T00:59:24.365Z,4.66
2019-02-23T01:00:24.295Z,4.66
2019-02-23T01:01:24.256Z,4.80
2019-02-23T01:02:24.203Z,4.79
2019-02-23T01:03:24.139Z,4.80
2019-02-23T01:04:24.084Z,4.86
2019-02-23T01:05:24.029Z,4.76
2019-02-23T01:06:23.996Z,4.80
2019-02-23T01:07:23.941Z,4.85
2019-02-23T01:08:23.859Z,4.85
2019-02-23T01:09:23.834Z,4.86
2019-02-23T01:10:23.749Z,4.83
2019-02-23T01:11:23.707Z,4.80
2019-02-23T01:12:23.673Z,4.90
2019-02-23T01:13:23.584Z,4.88
2019-02-23T01:14:23.531Z,4.89
2019-02-23T01:15:23.476Z,4.89
2019-02-23T01:16:23.412Z,4.89
2019-02-23T01:17:23.423Z,4.96
2019-02-23T01:18:23.307Z,4.96
2019-02-23T01:19:23.256Z,4.86
2019-02-23T01:20:23.197Z,4.90
2019-02-23T01:21:23.135Z,4.95
2019-02-23T01:22:23.143Z,4.88
2019-02-23T01:23:23.023Z,4.92
2019-02-23T01:24:22.982Z,4.95
2019-02-23T01:25:22.919Z,4.93
2019-02-23T01:26:22.883Z,5.03
2019-02-23T01:27:22.834Z,5.03
2019-02-23T01:28:22.749Z,5.06
2019-02-23T01:29:22.698Z,4.96
2019-02-23T01:30:22.639Z,4.99
2019-02-23T01:31:22.592Z,4.98
2019-02-23T01:32:22.557Z,5.06
2019-02-23T01:33:22.474Z,4.96
2019-02-23T01:34:22.413Z,5.01
2019-02-23T01:35:22.348Z,5.04
2019-02-23T01:36:22.294Z,4.96
2019-02-23T01:37:22.260Z,4.98
2019-02-23T01:38:22.191Z,4.96
2019-02-23T01:39:22.136Z,4.89
2019-02-23T01:40:22.081Z,4.93
2019-02-23T01:41:22.017Z,4.89
2019-02-23T01:42:21.995Z,4.88
2019-02-23T01:43:21.923Z,4.90
2019-02-23T01:44:21.850Z,4.92
2019-02-23T01:45:21.809Z,4.86
2019-02-23T01:46:21.774Z,4.86
2019-02-23T01:47:21.721Z,4.83
2019-02-23T01:48:21.643Z,4.83
2019-02-23T01:49:21.583Z,4.83
2019-02-23T01:50:21.517Z,4.79
2019-02-23T01:51:21.465Z,4.76
2019-02-23T01:52:21.419Z,4.71
2019-02-23T01:53:21.357Z,4.76
2019-02-23T01:54:21.293Z,4.74
2019-02-23T01:55:21.250Z,4.61
2019-02-23T01:56:21.187Z,4.69
2019-02-23T01:57:21.165Z,4.67
2019-02-23T01:58:21.077Z,4.55
2019-02-23T01:59:21.014Z,4.61
2019-02-23T02:00:20.970Z,4.58
2019-02-23T02:01:20.913Z,4.49
2019-02-23T02:02:20.889Z,4.52
2019-02-23T02:03:20.797Z,4.53
2019-02-23T02:04:20.737Z,4.58
2019-02-23T02:05:20.686Z,4.51
2019-02-23T02:06:20.630Z,4.46
2019-02-23T02:07:20.620Z,4.48
2019-02-23T02:08:20.516Z,4.38
2019-02-23T02:09:20.462Z,4.34
2019-02-23T02:10:20.397Z,4.37
2019-02-23T02:11:20.354Z,4.34
2019-02-23T02:12:20.282Z,4.30
2019-02-23T02:13:20.273Z,4.31
2019-02-23T02:14:20.178Z,4.38
2019-02-23T02:15:20.122Z,4.46
2019-02-23T02:16:20.063Z,4.31
2019-02-23T02:17:20.023Z,4.33
2019-02-23T02:18:19.995Z,4.33
2019-02-23T02:19:19.911Z,4.34
2019-02-23T02:20:19.851Z,4.40
2019-02-23T02:21:19.789Z,4.45
2019-02-23T02:22:19.736Z,4.34
2019-02-23T02:23:19.700Z,4.35
2019-02-23T02:24:19.710Z,4.28
2019-02-23T02:25:19.569Z,4.27
2019-02-23T02:26:19.506Z,4.28
2019-02-23T02:27:19.437Z,4.30
2019-02-23T02:28:19.418Z,4.22
2019-02-23T02:29:19.343Z,4.20
2019-02-23T02:30:19.284Z,4.22
2019-02-23T02:31:19.266Z,4.12
2019-02-23T02:32:19.176Z,4.16
2019-02-23T02:33:19.144Z,4.13
2019-02-23T02:34:19.058Z,4.09
2019-02-23T02:35:19.027Z,4.12
2019-02-23T02:36:18.953Z,4.16
2019-02-23T02:37:18.884Z,4.02
2019-02-23T02:38:18.903Z,4.02
2019-02-23T02:39:18.786Z,3.95
2019-02-23T02:40:18.726Z,4.02
2019-02-23T02:41:18.673Z,4.01
2019-02-23T02:42:18.614Z,4.05
2019-02-23T02:43:18.596Z,3.95
2019-02-23T02:44:18.502Z,4.02
2019-02-23T02:45:18.426Z,4.00
2019-02-23T02:46:18.383Z,3.90
2019-02-23T02:47:18.337Z,3.92
2019-02-23T02:48:18.308Z,3.79
2019-02-23T02:49:18.206Z,3.84
2019-02-23T02:50:24.397Z,3.82
2019-02-23T02:51:18.094Z,3.86
2019-02-23T02:52:18.046Z,3.86
2019-02-23T02:53:18.021Z,3.84
2019-02-23T02:54:17.939Z,3.83
2019-02-23T02:55:17.880Z,3.79
2019-02-23T02:56:17.830Z,3.74
2019-02-23T02:57:17.775Z,3.76
2019-02-23T02:58:17.757Z,3.76
2019-02-23T02:59:17.656Z,3.61
2019-02-23T03:00:17.598Z,3.68
2019-02-23T03:01:17.540Z,3.66
2019-02-23T03:02:17.464Z,3.66
2019-02-23T03:03:17.438Z,3.61
2019-02-23T03:04:17.398Z,3.61
2019-02-23T03:05:17.311Z,3.56
2019-02-23T03:06:17.269Z,3.56
2019-02-23T03:07:17.202Z,3.52
2019-02-23T03:08:17.152Z,3.52
2019-02-23T03:09:17.118Z,3.55
2019-02-23T03:10:17.032Z,3.51
2019-02-23T03:11:16.993Z,3.56
2019-02-23T03:12:16.925Z,3.48
2019-02-23T03:13:16.857Z,3.48
2019-02-23T03:14:16.831Z,3.35
2019-02-23T03:15:16.759Z,3.40
2019-02-23T03:16:16.689Z,3.37
2019-02-23T03:17:16.632Z,3.40
2019-02-23T03:18:16.581Z,3.37
2019-02-23T03:19:16.549Z,3.37
2019-02-23T03:20:16.479Z,3.35
2019-02-23T03:21:16.418Z,3.36
2019-02-23T03:22:16.348Z,3.33
2019-02-23T03:23:16.300Z,3.33
2019-02-23T03:24:16.261Z,3.24
2019-02-23T03:25:16.187Z,3.27
2019-02-23T03:26:16.138Z,3.27
2019-02-23T03:27:16.072Z,3.33
2019-02-23T03:28:16.016Z,3.28
2019-02-23T03:29:15.984Z,3.25
2019-02-23T03:30:15.901Z,3.19
2019-02-23T03:31:15.845Z,3.19
2019-02-23T03:32:15.794Z,3.19
2019-02-23T03:33:15.738Z,3.19
2019-02-23T03:34:15.723Z,3.27
2019-02-23T03:35:15.657Z,3.27
2019-02-23T03:36:15.556Z,3.10
2019-02-23T03:37:15.504Z,3.17
2019-02-23T03:38:15.450Z,3.10
2019-02-23T03:39:15.410Z,3.07
2019-02-23T03:40:15.433Z,3.12
2019-02-23T03:41:15.278Z,3.07
2019-02-23T03:42:15.242Z,3.10
2019-02-23T03:43:15.165Z,3.04
2019-02-23T03:44:15.324Z,3.00
2019-02-23T03:45:15.058Z,3.03
2019-02-23T03:46:14.994Z,3.01
2019-02-23T03:47:14.950Z,2.97
2019-02-23T03:48:14.883Z,3.03
2019-02-23T03:49:14.878Z,2.97
2019-02-23T03:50:14.777Z,2.99
2019-02-23T03:51:14.722Z,2.97
2019-02-23T03:52:14.653Z,2.99
2019-02-23T03:53:14.599Z,2.96
2019-02-23T03:54:14.543Z,3.00
2019-02-23T03:55:14.523Z,3.00
2019-02-23T03:56:14.433Z,2.97
2019-02-23T03:57:14.371Z,2.97
2019-02-23T03:58:14.319Z,2.96
2019-02-23T03:59:14.260Z,2.92
2019-02-23T04:00:14.225Z,2.89
2019-02-23T04:01:14.135Z,2.88
2019-02-23T04:02:14.084Z,2.85
2019-02-23T04:03:14.028Z,2.82
2019-02-23T04:04:13.975Z,2.86
2019-02-23T04:05:13.978Z,2.86
2019-02-23T04:06:13.864Z,2.85
2019-02-23T04:07:13.809Z,2.88
2019-02-23T04:08:13.748Z,2.83
2019-02-23T04:09:13.709Z,2.83
2019-02-23T04:10:13.670Z,2.78
2019-02-23T04:11:13.575Z,2.81
2019-02-23T04:12:13.526Z,2.78
2019-02-23T04:13:13.457Z,2.78
2019-02-23T04:14:13.392Z,2.78
2019-02-23T04:15:13.360Z,2.74
2019-02-23T04:16:13.294Z,2.79
2019-02-23T04:17:13.231Z,2.78
2019-02-23T04:18:13.175Z,2.79
2019-02-23T04:19:13.124Z,2.78
2019-02-23T04:20:13.098Z,2.78
2019-02-23T04:21:13.009Z,2.70
2019-02-23T04:22:12.947Z,2.68
2019-02-23T04:23:12.891Z,2.71
2019-02-23T04:24:12.852Z,2.64
2019-02-23T04:25:12.803Z,2.67
2019-02-23T04:26:12.724Z,2.67
2019-02-23T04:27:12.666Z,2.63
2019-02-23T04:28:12.607Z,2.68
2019-02-23T04:29:12.559Z,2.65
2019-02-23T04:30:12.529Z,2.68
2019-02-23T04:31:12.460Z,2.67
2019-02-23T04:32:12.375Z,2.63
2019-02-23T04:33:12.334Z,2.70
2019-02-23T04:34:12.251Z,2.65
2019-02-23T04:35:12.224Z,2.64
2019-02-23T04:36:12.149Z,2.68
2019-02-23T04:37:12.114Z,2.70
2019-02-23T04:38:12.038Z,2.71
2019-02-23T04:39:11.976Z,2.70
2019-02-23T04:40:11.963Z,2.70
2019-02-23T04:41:11.866Z,2.68
2019-02-23T04:42:11.805Z,2.74
2019-02-23T04:43:11.754Z,2.67
2019-02-23T04:44:11.698Z,2.70
2019-02-23T04:45:11.665Z,2.68
2019-02-23T04:46:11.582Z,2.65
2019-02-23T04:47:11.528Z,2.70
2019-02-23T04:48:11.471Z,2.76
2019-02-23T04:49:11.404Z,2.73
2019-02-23T04:50:11.357Z,2.63
2019-02-23T04:51:14.602Z,2.68
2019-02-23T04:52:11.247Z,2.64
2019-02-23T04:53:11.178Z,2.70
2019-02-23T04:54:11.135Z,2.70
2019-02-23T04:55:11.091Z,2.63
2019-02-23T04:56:11.012Z,2.76
2019-02-23T04:57:10.969Z,2.74
2019-02-23T04:58:10.893Z,2.81
2019-02-23T04:59:10.844Z,2.89
2019-02-23T05:00:10.837Z,2.83
2019-02-23T05:01:10.726Z,2.83
2019-02-23T05:02:10.669Z,2.83
2019-02-23T05:03:10.639Z,2.86
2019-02-23T05:04:10.555Z,2.81
2019-02-23T05:05:10.530Z,2.83
2019-02-23T05:06:10.471Z,2.76
2019-02-23T05:07:10.398Z,2.79
2019-02-23T05:08:10.332Z,2.74
2019-02-23T05:09:10.258Z,2.64
2019-02-23T05:10:10.195Z,2.73
2019-02-23T05:11:10.171Z,2.70
2019-02-23T05:12:10.106Z,2.61
2019-02-23T05:13:10.051Z,2.70
2019-02-23T05:14:09.994Z,2.65
2019-02-23T05:15:09.933Z,2.70
2019-02-23T05:16:09.893Z,2.64
2019-02-23T05:17:09.812Z,2.58
2019-02-23T05:18:09.755Z,2.60
2019-02-23T05:19:09.703Z,2.49
2019-02-23T05:20:09.647Z,2.53
2019-02-23T05:21:09.646Z,2.52
2019-02-23T05:22:09.531Z,2.47
2019-02-23T05:23:09.479Z,2.42
2019-02-23T05:24:09.425Z,2.34
2019-02-23T05:25:09.410Z,2.32
2019-02-23T05:26:09.350Z,2.34
2019-02-23T05:27:09.245Z,2.21
2019-02-23T05:28:09.203Z,2.37
2019-02-23T05:29:09.128Z,2.27
2019-02-23T05:30:09.073Z,2.34
2019-02-23T05:31:09.046Z,2.25
2019-02-23T05:32:08.962Z,2.25
2019-02-23T05:33:08.902Z,2.28
2019-02-23T05:34:08.841Z,2.27
2019-02-23T05:35:08.787Z,2.27
2019-02-23T05:36:08.766Z,2.27
2019-02-23T05:37:08.675Z,2.22
2019-02-23T05:38:08.618Z,2.20
2019-02-23T05:39:08.559Z,2.22
2019-02-23T05:40:08.495Z,2.14
2019-02-23T05:41:08.466Z,2.09
2019-02-23T05:42:08.372Z,2.04
2019-02-23T05:43:08.323Z,2.09
2019-02-23T05:44:08.294Z,2.06
2019-02-23T05:45:08.195Z,2.07
2019-02-23T05:46:08.173Z,2.06
2019-02-23T05:47:08.107Z,1.99
2019-02-23T05:48:08.038Z,2.03
2019-02-23T05:49:08.017Z,2.10
2019-02-23T05:50:07.968Z,2.11
2019-02-23T05:51:07.895Z,2.14
2019-02-23T05:52:07.815Z,2.16
2019-02-23T05:53:07.789Z,2.20
2019-02-23T05:54:07.731Z,2.11
2019-02-23T05:55:07.662Z,2.13
2019-02-23T05:56:07.642Z,2.14
2019-02-23T05:57:07.525Z,2.03
2019-02-23T05:58:07.457Z,2.07
2019-02-23T05:59:07.417Z,2.06
2019-02-23T06:00:07.361Z,2.07
2019-02-23T06:01:07.322Z,2.02
2019-02-23T06:02:07.239Z,2.04
2019-02-23T06:03:07.194Z,2.06
2019-02-23T06:04:07.126Z,2.06
2019-02-23T06:05:07.099Z,2.06
2019-02-23T06:06:07.029Z,2.06
2019-02-23T06:07:06.978Z,2.04
2019-02-23T06:08:06.904Z,2.06
2019-02-23T06:09:06.835Z,2.04
2019-02-23T06:10:06.779Z,2.11
2019-02-23T06:11:06.716Z,2.09
2019-02-23T06:12:06.698Z,2.04
2019-02-23T06:13:06.606Z,2.11
2019-02-23T06:14:06.546Z,2.04
2019-02-23T06:15:06.499Z,2.04
2019-02-23T06:16:06.427Z,2.02
2019-02-23T06:17:06.429Z,2.03
2019-02-23T06:18:06.324Z,2.06
2019-02-23T06:19:06.264Z,2.11
2019-02-23T06:20:06.218Z,2.03
2019-02-23T06:21:06.170Z,2.06
2019-02-23T06:22:06.120Z,2.06
2019-02-23T06:23:06.032Z,2.09
2019-02-23T06:24:05.978Z,2.02
2019-02-23T06:25:05.933Z,2.09
2019-02-23T06:26:05.913Z,2.10
2019-02-23T06:27:05.837Z,2.02
2019-02-23T06:28:05.743Z,2.02
2019-02-23T06:29:05.694Z,2.09
2019-02-23T06:30:05.640Z,2.07
2019-02-23T06:31:05.579Z,1.98
2019-02-23T06:32:05.533Z,2.02
2019-02-23T06:33:05.461Z,2.02
2019-02-23T06:34:15.502Z,1.98
2019-02-23T06:35:05.346Z,2.03
2019-02-23T06:36:05.287Z,2.06
2019-02-23T06:37:05.266Z,2.03
2019-02-23T06:38:05.174Z,1.99
2019-02-23T06:39:05.229Z,1.99
2019-02-23T06:40:05.057Z,2.03
2019-02-23T06:41:05.004Z,2.02
2019-02-23T06:42:04.970Z,2.03
2019-02-23T06:43:04.885Z,2.03
2019-02-23T06:44:04.837Z,1.94
2019-02-23T06:45:04.777Z,1.98
2019-02-23T06:46:04.709Z,1.95
2019-02-23T06:47:04.681Z,2.02
2019-02-23T06:48:04.599Z,1.99
2019-02-23T06:49:04.540Z,2.07
2019-02-23T06:50:04.479Z,2.03
2019-02-23T06:51:04.428Z,2.07
2019-02-23T06:52:04.813Z,2.09
2019-02-23T06:53:04.309Z,2.11
2019-02-23T06:54:04.241Z,2.10
2019-02-23T06:55:04.194Z,2.11
2019-02-23T06:56:04.139Z,2.14
2019-02-23T06:57:04.123Z,2.11
2019-02-23T06:58:04.026Z,2.10
2019-02-23T06:59:03.974Z,2.04
2019-02-23T07:00:03.908Z,2.17
2019-02-23T07:01:03.850Z,2.20
2019-02-23T07:02:03.825Z,2.06
2019-02-23T07:03:03.758Z,2.16
2019-02-23T07:04:03.693Z,2.16
2019-02-23T07:05:03.627Z,2.16
2019-02-23T07:06:03.552Z,2.10
2019-02-23T07:07:03.526Z,2.20
2019-02-23T07:08:03.442Z,2.14
2019-02-23T07:09:03.391Z,2.16
2019-02-23T07:10:03.336Z,2.20
2019-02-23T07:11:03.277Z,2.22
2019-02-23T07:12:03.250Z,2.21
2019-02-23T07:13:03.168Z,2.28
2019-02-23T07:14:03.109Z,2.28
2019-02-23T07:15:03.051Z,2.31
2019-02-23T07:16:02.995Z,2.40
2019-02-23T07:17:05.009Z,2.39
2019-02-23T07:18:02.879Z,2.35
2019-02-23T07:19:02.821Z,2.35
2019-02-23T07:20:02.768Z,2.46
2019-02-23T07:21:02.720Z,2.43
2019-02-23T07:22:02.682Z,2.47
2019-02-23T07:23:02.593Z,2.46
2019-02-23T07:24:02.566Z,2.49
2019-02-23T07:25:02.499Z,2.57
2019-02-23T07:26:02.415Z,2.50
2019-02-23T07:27:02.410Z,2.60
2019-02-23T07:28:02.294Z,2.52
2019-02-23T07:29:02.247Z,2.55
2019-02-23T07:30:02.178Z,2.57
2019-02-23T07:31:02.123Z,2.63
2019-02-23T07:32:02.068Z,2.61
2019-02-23T07:33:02.051Z,2.57
2019-02-23T07:34:01.965Z,2.63
2019-02-23T07:35:01.907Z,2.64
2019-02-23T07:36:01.851Z,2.68
2019-02-23T07:37:01.817Z,2.68
2019-02-23T07:38:01.763Z,2.71
2019-02-23T07:39:01.680Z,2.76
2019-02-23T07:40:01.621Z,2.70
2019-02-23T07:41:01.564Z,2.82
2019-02-23T07:42:01.504Z,2.82
2019-02-23T07:43:01.475Z,2.81
2019-02-23T07:44:03.409Z,2.81
2019-02-23T07:45:01.320Z,2.86
2019-02-23T07:46:01.279Z,2.79
2019-02-23T07:47:01.217Z,2.79
2019-02-23T07:48:01.219Z,2.83
2019-02-23T07:49:01.103Z,2.86
2019-02-23T07:50:01.047Z,2.85
2019-02-23T07:51:00.994Z,2.85
2019-02-23T07:52:00.936Z,2.86
2019-02-23T07:53:00.904Z,2.86
2019-02-23T07:54:00.824Z,2.92
2019-02-23T07:55:00.827Z,2.92
2019-02-23T07:56:00.703Z,2.89
2019-02-23T07:57:00.647Z,2.96
2019-02-23T07:58:00.623Z,2.97
2019-02-23T07:59:00.588Z,2.97
2019-02-23T08:00:00.524Z,3.04
2019-02-23T08:01:00.434Z,3.12
2019-02-23T08:02:00.366Z,3.01
2019-02-23T08:03:00.364Z,3.06
2019-02-23T08:04:00.258Z,3.07
2019-02-23T08:05:00.325Z,3.21
2019-02-23T08:06:00.135Z,3.21
2019-02-23T08:07:00.115Z,3.24
2019-02-23T08:08:00.051Z,3.29
2019-02-23T08:08:59.980Z,3.21
2019-02-23T08:09:59.929Z,3.33
2019-02-23T08:10:59.843Z,3.32
2019-02-23T08:11:59.801Z,3.41
2019-02-23T08:12:59.781Z,3.36
2019-02-23T08:13:59.686Z,3.41
2019-02-23T08:14:59.643Z,3.52
2019-02-23T08:15:59.576Z,3.52
2019-02-23T08:16:59.532Z,3.54
2019-02-23T08:17:59.510Z,3.59
2019-02-23T08:18:59.415Z,3.64
2019-02-23T08:19:59.337Z,3.61
2019-02-23T08:20:59.294Z,3.73
2019-02-23T08:21:59.249Z,3.74
2019-02-23T08:22:59.205Z,3.73
2019-02-23T08:23:59.131Z,3.68
2019-02-23T08:24:59.318Z,3.76
2019-02-23T08:25:59.001Z,3.79
2019-02-23T08:26:58.959Z,3.79
2019-02-23T08:27:58.952Z,3.83
2019-02-23T08:28:58.841Z,3.80
2019-02-23T08:29:58.775Z,3.90
2019-02-23T08:30:58.729Z,4.05
2019-02-23T08:31:58.680Z,4.02
2019-02-23T08:32:58.633Z,4.04
2019-02-23T08:33:58.538Z,4.01
2019-02-23T08:34:58.498Z,4.05
2019-02-23T08:35:58.440Z,4.15
2019-02-23T08:36:58.379Z,4.10
2019-02-23T08:37:58.361Z,4.10
2019-02-23T08:38:58.262Z,4.09
2019-02-23T08:39:58.242Z,4.20
2019-02-23T08:40:58.189Z,4.28
2019-02-23T08:41:58.103Z,4.26
2019-02-23T08:42:58.047Z,4.35
2019-02-23T08:43:58.036Z,4.31
2019-02-23T08:44:57.932Z,4.34
2019-02-23T08:45:57.894Z,4.38
2019-02-23T08:46:57.832Z,4.27
2019-02-23T08:47:57.766Z,4.41
2019-02-23T08:48:57.745Z,4.31
2019-02-23T08:49:57.686Z,4.45
2019-02-23T08:50:57.603Z,4.34
2019-02-23T08:51:57.545Z,4.45
2019-02-23T08:52:57.507Z,4.53
2019-02-23T08:53:57.465Z,4.49
2019-02-23T08:54:57.371Z,4.53
2019-02-23T08:55:57.321Z,4.51
2019-02-23T08:56:57.270Z,4.52
2019-02-23T08:57:57.230Z,4.52
2019-02-23T08:58:57.208Z,4.59
2019-02-23T08:59:57.119Z,4.55
2019-02-23T09:00:57.046Z,4.66
2019-02-23T09:01:56.992Z,4.66
2019-02-23T09:02:56.945Z,4.64
2019-02-23T09:03:56.923Z,4.70
2019-02-23T09:04:56.826Z,4.80
2019-02-23T09:05:56.764Z,4.77
2019-02-23T09:06:56.697Z,4.73
2019-02-23T09:07:56.652Z,4.76
2019-02-23T09:08:56.606Z,4.88
2019-02-23T09:09:56.532Z,4.83
2019-02-23T09:10:56.482Z,4.89
2019-02-23T09:11:56.430Z,4.96
2019-02-23T09:12:56.364Z,5.01
2019-02-23T09:13:56.350Z,5.04
2019-02-23T09:14:56.229Z,5.08
2019-02-23T09:15:56.197Z,5.06
2019-02-23T09:16:56.153Z,5.08
2019-02-23T09:17:56.104Z,5.13
2019-02-23T09:18:56.065Z,5.22
2019-02-23T09:19:55.974Z,5.24
2019-02-23T09:20:55.931Z,5.25
2019-02-23T09:21:55.885Z,5.26
2019-02-23T09:23:00.076Z,5.43
2019-02-23T09:23:55.795Z,5.33
2019-02-23T09:24:55.712Z,5.42
2019-02-23T09:25:57.853Z,5.57
2019-02-23T09:26:55.630Z,5.57
2019-02-23T09:27:55.544Z,5.46
2019-02-23T09:28:55.505Z,5.46
2019-02-23T09:29:55.407Z,5.53
2019-02-23T09:30:55.369Z,5.58
2019-02-23T09:31:55.335Z,5.57
2019-02-23T09:32:55.275Z,5.62
2019-02-23T09:33:55.235Z,5.65
2019-02-23T09:34:55.152Z,5.67
2019-02-23T09:35:55.098Z,5.65
2019-02-23T09:36:55.040Z,5.64
2019-02-23T09:37:55.005Z,5.71
2019-02-23T09:38:54.961Z,5.80
2019-02-23T09:39:54.937Z,5.86
2019-02-23T09:40:54.816Z,5.92
2019-02-23T09:41:54.759Z,5.94
2019-02-23T09:42:54.704Z,5.86
2019-02-23T09:43:54.689Z,5.89
2019-02-23T09:44:54.630Z,5.95
2019-02-23T09:45:54.538Z,5.97
2019-02-23T09:46:54.497Z,6.03
2019-02-23T09:47:54.423Z,6.03
2019-02-23T09:48:56.331Z,6.01
2019-02-23T09:49:54.346Z,6.07
2019-02-23T09:50:54.265Z,6.00
2019-02-23T09:51:54.213Z,6.01
2019-02-23T09:52:54.151Z,6.03
2019-02-23T09:53:54.214Z,6.03
2019-02-23T09:54:54.062Z,6.10
2019-02-23T09:55:53.995Z,6.05
2019-02-23T09:56:53.960Z,6.19
2019-02-23T09:57:53.884Z,6.21
2019-02-23T09:58:53.833Z,6.26
2019-02-23T09:59:53.850Z,6.34
2019-02-23T10:00:53.725Z,6.16
2019-02-23T10:01:53.665Z,6.37
2019-02-23T10:02:53.610Z,6.35
2019-02-23T10:03:53.544Z,6.29
2019-02-23T10:04:53.524Z,6.35
2019-02-23T10:05:53.440Z,6.35
2019-02-23T10:06:53.392Z,6.37
2019-02-23T10:07:53.340Z,6.41
2019-02-23T10:08:53.366Z,6.39
2019-02-23T10:09:53.239Z,6.45
2019-02-23T10:10:53.168Z,6.49
2019-02-23T10:11:53.122Z,6.57
2019-02-23T10:12:53.089Z,6.52
2019-02-23T10:13:53.012Z,6.55
2019-02-23T10:14:52.987Z,6.59
2019-02-23T10:15:52.896Z,6.55
2019-02-23T10:16:52.853Z,6.59
2019-02-23T10:17:52.784Z,6.63
2019-02-23T10:18:52.741Z,6.60
2019-02-23T10:19:52.712Z,6.66
2019-02-23T10:20:52.624Z,6.71
2019-02-23T10:21:52.922Z,6.73
2019-02-23T10:22:52.515Z,6.65
2019-02-23T10:23:52.461Z,6.75
2019-02-23T10:24:52.430Z,6.80
2019-02-23T10:25:52.353Z,6.83
2019-02-23T10:26:52.300Z,6.78
2019-02-23T10:27:52.275Z,6.84
2019-02-23T10:28:52.222Z,6.85
2019-02-23T10:29:52.165Z,6.92
2019-02-23T10:30:52.082Z,7.00
2019-02-23T10:31:52.026Z,7.02
2019-02-23T10:32:51.978Z,7.03
2019-02-23T10:33:51.915Z,7.05
2019-02-23T10:34:51.922Z,7.13
2019-02-23T10:35:51.811Z,7.23
2019-02-23T10:36:51.755Z,7.23
2019-02-23T10:37:51.706Z,7.23
2019-02-23T10:38:51.655Z,7.29
2019-02-23T10:39:51.600Z,7.44
2019-02-23T10:40:51.580Z,7.42
2019-02-23T10:41:51.494Z,7.44
2019-02-23T10:42:51.442Z,7.46
2019-02-23T10:43:51.387Z,7.46
2019-02-23T10:44:51.325Z,7.50
2019-02-23T10:45:51.306Z,7.50
2019-02-23T10:46:51.215Z,7.46
2019-02-23T10:47:51.170Z,7.52
2019-02-23T10:48:51.109Z,7.44
2019-02-23T10:49:51.082Z,7.52
2019-02-23T10:50:51.028Z,7.46
2019-02-23T10:51:50.948Z,7.46
2019-02-23T10:52:50.893Z,7.59
2019-02-23T10:53:50.840Z,7.60
2019-02-23T10:54:50.800Z,7.54
2019-02-23T10:55:50.767Z,7.59
2019-02-23T10:56:50.676Z,7.56
2019-02-23T10:57:50.632Z,7.57
2019-02-23T10:58:50.592Z,7.60
2019-02-23T10:59:50.524Z,7.62
2019-02-23T11:00:50.491Z,7.62
2019-02-23T11:01:50.419Z,7.62
2019-02-23T11:02:50.341Z,7.69
2019-02-23T11:03:50.302Z,7.75
2019-02-23T11:04:50.277Z,7.76
2019-02-23T11:05:50.214Z,7.72
2019-02-23T11:06:50.141Z,7.68
2019-02-23T11:07:50.106Z,7.69
2019-02-23T11:08:50.033Z,7.68
2019-02-23T11:09:49.978Z,7.68
2019-02-23T11:10:49.949Z,7.78
2019-02-23T11:11:49.865Z,7.70
2019-02-23T11:12:49.826Z,7.72
2019-02-23T11:13:49.774Z,7.72
2019-02-23T11:14:49.713Z,7.73
2019-02-23T11:15:49.685Z,7.79
2019-02-23T11:16:49.608Z,7.79
2019-02-23T11:17:49.549Z,7.86
2019-02-23T11:18:49.476Z,7.87
2019-02-23T11:19:49.448Z,7.93
2019-02-23T11:20:49.434Z,7.98
2019-02-23T11:21:49.344Z,7.98
2019-02-23T11:22:49.293Z,7.96
2019-02-23T11:23:49.232Z,8.04
2019-02-23T11:24:49.173Z,8.06
2019-02-23T11:25:49.152Z,8.11
2019-02-23T11:26:49.067Z,8.09
2019-02-23T11:27:49.029Z,8.13
2019-02-23T11:28:48.966Z,8.13
2019-02-23T11:29:48.905Z,8.16
2019-02-23T11:30:48.875Z,8.11
2019-02-23T11:31:48.787Z,8.09
2019-02-23T11:32:48.744Z,8.23
2019-02-23T11:33:48.687Z,8.23
2019-02-23T11:34:48.640Z,8.23
2019-02-23T11:35:48.612Z,8.29
2019-02-23T11:36:48.537Z,8.31
2019-02-23T11:37:48.477Z,8.34
2019-02-23T11:38:48.423Z,8.29
2019-02-23T11:39:48.366Z,8.33
2019-02-23T11:40:48.349Z,8.30
2019-02-23T11:41:48.261Z,8.30
2019-02-23T11:42:48.208Z,8.41
2019-02-23T11:43:48.171Z,8.30
2019-02-23T11:44:48.118Z,8.33
2019-02-23T11:45:48.081Z,8.33
2019-02-23T11:46:59.778Z,8.39
2019-02-23T11:47:47.942Z,8.45
2019-02-23T11:48:47.896Z,8.41
2019-02-23T11:49:47.839Z,8.39
2019-02-23T11:50:47.814Z,8.42
2019-02-23T11:51:47.741Z,8.44
2019-02-23T11:52:47.685Z,8.41
2019-02-23T11:53:54.560Z,8.45
2019-02-23T11:54:47.574Z,8.42
2019-02-23T11:55:47.589Z,8.48
2019-02-23T11:56:47.491Z,8.48
2019-02-23T11:57:47.398Z,8.45
2019-02-23T11:58:47.341Z,8.44
2019-02-23T11:59:47.363Z,8.54
2019-02-23T12:00:47.298Z,8.52
2019-02-23T12:01:47.238Z,8.62
2019-02-23T12:02:52.504Z,8.55
2019-02-23T12:03:47.095Z,8.59
2019-02-23T12:04:47.040Z,8.64
2019-02-23T12:05:47.007Z,8.57
2019-02-23T12:06:46.962Z,8.67
2019-02-23T12:07:46.878Z,8.60
2019-02-23T12:08:46.828Z,8.63
2019-02-23T12:09:46.811Z,8.63
2019-02-23T12:10:46.767Z,8.62
2019-02-23T12:11:46.697Z,8.67
2019-02-23T12:12:46.622Z,8.66
2019-02-23T12:13:46.571Z,8.81
2019-02-23T12:14:46.516Z,8.84
2019-02-23T12:15:46.457Z,8.78
2019-02-23T12:16:46.440Z,8.85
2019-02-23T12:17:46.353Z,8.87
2019-02-23T12:18:46.300Z,8.88
2019-02-23T12:19:46.259Z,8.93
2019-02-23T12:20:46.180Z,8.93
2019-02-23T12:21:46.146Z,8.91
2019-02-23T12:22:46.121Z,8.98
2019-02-23T12:23:46.037Z,8.93
2019-02-23T12:24:45.986Z,8.93
2019-02-23T12:25:45.945Z,9.03
2019-02-23T12:26:45.899Z,9.05
2019-02-23T12:27:45.825Z,8.96
2019-02-23T12:28:45.768Z,8.91
2019-02-23T12:29:45.716Z,8.98
2019-02-23T12:30:45.671Z,9.05
2019-02-23T12:31:45.693Z,9.02
2019-02-23T12:32:45.661Z,8.99
2019-02-23T12:33:45.505Z,9.06
2019-02-23T12:34:45.440Z,9.02
2019-02-23T12:35:45.395Z,9.00
2019-02-23T12:36:45.367Z,9.05
2019-02-23T12:37:45.300Z,9.00
2019-02-23T12:38:45.255Z,8.98
2019-02-23T12:39:45.204Z,8.99
2019-02-23T12:40:45.148Z,9.02
2019-02-23T12:41:45.131Z,8.99
2019-02-23T12:42:45.017Z,8.99
2019-02-23T12:43:44.983Z,9.02
2019-02-23T12:44:44.935Z,9.02
2019-02-23T12:45:44.884Z,9.10
2019-02-23T12:46:44.847Z,9.06
2019-02-23T12:47:44.774Z,8.98
2019-02-23T12:48:44.715Z,9.02
2019-02-23T12:49:44.670Z,9.08
2019-02-23T12:50:44.610Z,9.10
2019-02-23T12:51:44.601Z,9.10
2019-02-23T12:52:44.502Z,9.02
2019-02-23T12:53:44.484Z,9.06
2019-02-23T12:54:44.437Z,9.06
2019-02-23T12:55:44.349Z,9.11
2019-02-23T12:56:44.318Z,9.16
2019-02-23T12:57:44.243Z,9.10
2019-02-23T12:58:44.172Z,9.21
2019-02-23T12:59:44.149Z,9.15
2019-02-23T13:00:44.079Z,9.24
2019-02-23T13:01:44.056Z,9.19
2019-02-23T13:02:43.985Z,9.22
2019-02-23T13:03:43.941Z,9.32
2019-02-23T13:04:43.877Z,9.43
2019-02-23T13:05:43.820Z,9.37
2019-02-23T13:06:43.809Z,9.46
2019-02-23T13:07:43.724Z,9.54
2019-02-23T13:08:43.662Z,9.57
2019-02-23T13:09:43.605Z,9.51
2019-02-23T13:10:43.585Z,9.55
2019-02-23T13:11:43.553Z,9.49
2019-02-23T13:12:43.445Z,9.46
2019-02-23T13:13:43.403Z,9.47
2019-02-23T13:14:43.368Z,9.47
2019-02-23T13:15:43.299Z,9.46
2019-02-23T13:16:43.245Z,9.43
2019-02-23T13:17:43.244Z,9.43